createdAt,value
2019-06-01T00:02:23.348Z,20.80
2019-06-01T00:04:58.517Z,20.80
2019-06-01T00:07:33.356Z,20.80
2019-06-01T00:10:08.587Z,20.70
2019-06-01T00:12:43.567Z,20.60
2019-06-01T00:15:18.539Z,20.60
2019-06-01T00:17:53.387Z,20.40
2019-06-01T00:20:28.312Z,20.40
2019-06-01T00:23:03.072Z,20.40
2019-06-01T00:25:40.341Z,20.20
2019-06-01T00:28:15.356Z,19.90
2019-06-01T00:30:50.385Z,20.00
2019-06-01T00:33:25.289Z,19.70
2019-06-01T00:36:00.068Z,19.90
2019-06-01T00:38:34.909Z,19.80
2019-06-01T00:41:09.773Z,19.80
2019-06-01T00:43:44.623Z,19.80
2019-06-01T00:46:38.664Z,19.70
2019-06-01T00:49:14.471Z,19.70
2019-06-01T00:51:49.324Z,19.60
2019-06-01T00:54:26.050Z,19.60
2019-06-01T00:57:00.990Z,19.70
2019-06-01T00:59:35.772Z,19.70
2019-06-01T01:02:10.779Z,19.70
2019-06-01T01:04:46.374Z,19.70
2019-06-01T01:07:21.303Z,19.70
2019-06-01T01:09:56.176Z,19.60
2019-06-01T01:12:31.018Z,19.70
2019-06-01T01:15:06.689Z,19.60
2019-06-01T01:17:41.632Z,19.50
2019-06-01T01:20:16.400Z,19.50
2019-06-01T01:22:52.244Z,19.40
2019-06-01T01:25:27.291Z,19.40
2019-06-01T01:28:02.303Z,19.40
2019-06-01T01:30:37.304Z,19.40
2019-06-01T01:33:12.348Z,19.40
2019-06-01T01:35:47.558Z,19.30
2019-06-01T01:38:22.528Z,19.30
2019-06-01T01:40:59.395Z,19.20
2019-06-01T01:43:33.916Z,19.20
2019-06-01T01:46:08.839Z,19.20
2019-06-01T01:48:43.629Z,19.30
2019-06-01T01:51:18.484Z,19.20
2019-06-01T01:53:54.595Z,19.10
2019-06-01T01:56:29.866Z,19.10
2019-06-01T01:59:04.788Z,19.00
2019-06-01T02:01:39.715Z,18.90
2019-06-01T02:04:14.655Z,19.00
2019-06-01T02:06:51.633Z,19.00
2019-06-01T02:09:26.632Z,19.00
2019-06-01T02:12:01.968Z,18.90
2019-06-01T02:14:36.819Z,18.90
2019-06-01T02:17:11.651Z,18.90
2019-06-01T02:19:46.488Z,18.90
2019-06-01T02:22:21.244Z,18.80
2019-06-01T02:24:57.764Z,18.60
2019-06-01T02:27:32.696Z,18.70
2019-06-01T02:30:07.946Z,18.60
2019-06-01T02:32:42.800Z,18.60
2019-06-01T02:35:18.033Z,18.60
2019-06-01T02:37:54.476Z,18.60
2019-06-01T02:40:30.494Z,18.50
2019-06-01T02:43:06.765Z,18.40
2019-06-01T02:45:43.031Z,18.50
2019-06-01T02:48:17.952Z,18.40
2019-06-01T02:50:52.703Z,18.40
2019-06-01T02:53:27.475Z,18.50
2019-06-01T02:56:04.306Z,18.50
2019-06-01T02:58:39.136Z,18.50
2019-06-01T03:01:31.972Z,18.50
2019-06-01T03:04:09.075Z,18.50
2019-06-01T03:06:44.957Z,18.40
2019-06-01T03:09:21.759Z,18.20
2019-06-01T03:12:00.373Z,18.20
2019-06-01T03:14:37.034Z,18.30
2019-06-01T03:17:14.508Z,18.30
2019-06-01T03:19:52.248Z,18.20
2019-06-01T03:22:29.747Z,18.20
2019-06-01T03:25:05.936Z,18.20
2019-06-01T03:27:43.811Z,18.20
2019-06-01T03:30:28.367Z,18.10
2019-06-01T03:33:03.917Z,18.20
2019-06-01T03:35:39.816Z,18.20
2019-06-01T03:38:14.749Z,18.20
2019-06-01T03:40:49.516Z,18.20
2019-06-01T03:43:24.721Z,18.20
2019-06-01T03:46:00.490Z,18.30
2019-06-01T03:48:35.479Z,18.10
2019-06-01T03:51:11.973Z,18.20
2019-06-01T03:53:46.997Z,18.20
2019-06-01T03:56:21.933Z,18.10
2019-06-01T03:58:56.683Z,18.00
2019-06-01T04:01:32.684Z,18.10
2019-06-01T04:04:07.576Z,18.20
2019-06-01T04:06:42.349Z,18.30
2019-06-01T04:09:17.116Z,18.20
2019-06-01T04:11:51.883Z,18.10
2019-06-01T04:14:26.865Z,18.00
2019-06-01T04:17:02.020Z,18.00
2019-06-01T04:19:36.858Z,18.00
2019-06-01T04:22:13.548Z,18.10
2019-06-01T04:24:49.287Z,18.00
2019-06-01T04:27:24.290Z,18.10
2019-06-01T04:29:59.049Z,18.10
2019-06-01T04:32:48.807Z,17.90
2019-06-01T04:35:11.107Z,17.90
2019-06-01T04:37:46.035Z,17.60
2019-06-01T04:40:20.948Z,17.70
2019-06-01T04:42:55.792Z,17.70
2019-06-01T04:45:30.561Z,17.60
2019-06-01T04:48:06.407Z,17.70
2019-06-01T04:50:41.215Z,17.80
2019-06-01T04:53:15.967Z,17.70
2019-06-01T04:55:50.800Z,17.80
2019-06-01T04:58:25.544Z,17.80
2019-06-01T05:01:00.391Z,18.00
2019-06-01T05:03:35.142Z,18.10
2019-06-01T05:06:11.235Z,18.20
2019-06-01T05:08:46.304Z,18.30
2019-06-01T05:11:21.139Z,18.40
2019-06-01T05:13:56.067Z,18.50
2019-06-01T05:16:30.845Z,18.60
2019-06-01T05:19:06.032Z,18.70
2019-06-01T05:21:42.105Z,18.70
2019-06-01T05:24:17.300Z,18.90
2019-06-01T05:26:52.106Z,19.10
2019-06-01T05:29:26.872Z,19.20
2019-06-01T05:32:01.639Z,19.30
2019-06-01T05:34:36.471Z,19.20
2019-06-01T05:37:12.333Z,19.30
2019-06-01T05:39:47.349Z,19.40
2019-06-01T05:42:22.174Z,19.50
2019-06-01T05:44:56.994Z,19.60
2019-06-01T05:47:31.748Z,19.70
2019-06-01T05:50:06.838Z,19.80
2019-06-01T05:52:41.667Z,20.00
2019-06-01T05:55:18.768Z,20.10
2019-06-01T05:57:53.626Z,20.20
2019-06-01T06:00:40.213Z,20.40
2019-06-01T06:03:18.006Z,20.60
2019-06-01T06:05:51.621Z,20.60
2019-06-01T06:08:26.476Z,20.70
2019-06-01T06:11:01.287Z,20.80
2019-06-01T06:13:36.081Z,20.90
2019-06-01T06:16:11.942Z,21.00
2019-06-01T06:18:48.622Z,21.00
2019-06-01T06:21:23.696Z,21.10
2019-06-01T06:23:58.439Z,21.20
2019-06-01T06:26:33.248Z,21.20
2019-06-01T06:29:08.128Z,21.40
2019-06-01T06:31:42.915Z,21.20
2019-06-01T06:34:17.822Z,21.10
2019-06-01T06:36:52.782Z,21.10
2019-06-01T06:39:27.735Z,21.20
2019-06-01T06:42:02.508Z,21.20
2019-06-01T06:44:38.260Z,21.50
2019-06-01T06:47:13.108Z,21.60
2019-06-01T06:49:47.856Z,21.60
2019-06-01T06:52:23.632Z,21.60
2019-06-01T06:55:03.559Z,21.50
2019-06-01T06:57:38.400Z,21.80
2019-06-01T07:00:13.647Z,21.70
2019-06-01T07:02:51.126Z,21.70
2019-06-01T07:05:25.979Z,21.80
2019-06-01T07:08:00.774Z,21.70
2019-06-01T07:10:38.504Z,21.70
2019-06-01T07:13:14.014Z,21.60
2019-06-01T07:16:11.361Z,21.60
2019-06-01T07:18:49.461Z,21.60
2019-06-01T07:21:26.384Z,21.80
2019-06-01T07:24:01.249Z,22.20
2019-06-01T07:26:38.670Z,22.20
2019-06-01T07:29:13.698Z,22.20
2019-06-01T07:31:49.903Z,22.00
2019-06-01T07:34:43.964Z,22.00
2019-06-01T07:37:20.524Z,22.10
2019-06-01T07:39:56.044Z,21.90
2019-06-01T07:42:30.798Z,22.20
2019-06-01T07:45:06.996Z,22.10
2019-06-01T07:47:44.019Z,22.20
2019-06-01T07:50:19.822Z,22.30
2019-06-01T07:52:55.147Z,22.60
2019-06-01T07:55:31.733Z,22.60
2019-06-01T07:58:08.341Z,22.80
2019-06-01T08:00:43.250Z,23.00
2019-06-01T08:03:19.149Z,22.80
2019-06-01T08:05:54.225Z,22.80
2019-06-01T08:08:29.470Z,22.80
2019-06-01T08:11:05.583Z,22.90
2019-06-01T08:13:40.434Z,23.10
2019-06-01T08:16:15.424Z,22.90
2019-06-01T08:18:53.046Z,22.80
2019-06-01T08:21:28.042Z,23.00
2019-06-01T08:24:03.083Z,23.10
2019-06-01T08:26:37.944Z,23.20
2019-06-01T08:29:12.691Z,23.20
2019-06-01T08:31:47.527Z,23.20
2019-06-01T08:34:22.742Z,23.00
2019-06-01T08:36:57.576Z,23.10
2019-06-01T08:39:34.128Z,23.30
2019-06-01T08:42:08.787Z,23.30
2019-06-01T08:44:43.541Z,23.20
2019-06-01T08:47:18.376Z,23.30
2019-06-01T08:49:53.168Z,23.60
2019-06-01T08:52:28.125Z,23.90
2019-06-01T08:55:03.103Z,23.90
2019-06-01T08:57:38.037Z,23.90
2019-06-01T09:00:13.044Z,23.70
2019-06-01T09:02:47.819Z,23.60
2019-06-01T09:05:24.944Z,23.50
2019-06-01T09:07:59.312Z,23.50
2019-06-01T09:10:35.614Z,23.70
2019-06-01T09:13:10.468Z,23.60
2019-06-01T09:15:45.395Z,23.70
2019-06-01T09:18:20.305Z,23.60
2019-06-01T09:20:55.128Z,23.90
2019-06-01T09:23:29.900Z,24.10
2019-06-01T09:26:04.796Z,24.20
2019-06-01T09:28:39.560Z,24.20
2019-06-01T09:31:14.340Z,24.30
2019-06-01T09:33:49.264Z,24.20
2019-06-01T09:36:24.100Z,24.20
2019-06-01T09:39:00.128Z,24.20
2019-06-01T09:41:34.951Z,24.30
2019-06-01T09:44:09.741Z,24.10
2019-06-01T09:46:44.665Z,24.30
2019-06-01T09:49:19.591Z,24.10
2019-06-01T09:51:54.428Z,24.30
2019-06-01T09:54:30.689Z,24.20
2019-06-01T09:57:06.015Z,24.20
2019-06-01T09:59:40.880Z,24.50
2019-06-01T10:02:15.733Z,24.60
2019-06-01T10:04:50.513Z,24.70
2019-06-01T10:07:25.409Z,24.90
2019-06-01T10:10:00.170Z,25.10
2019-06-01T10:12:36.050Z,25.00
2019-06-01T10:15:11.240Z,25.30
2019-06-01T10:17:46.080Z,25.10
2019-06-01T10:20:21.057Z,24.90
2019-06-01T10:22:56.119Z,25.00
2019-06-01T10:25:32.293Z,25.20
2019-06-01T10:28:07.414Z,25.20
2019-06-01T10:30:42.332Z,25.30
2019-06-01T10:33:17.186Z,25.40
2019-06-01T10:35:52.004Z,25.30
2019-06-01T10:38:26.876Z,25.10
2019-06-01T10:41:01.821Z,24.90
2019-06-01T10:43:37.709Z,25.20
2019-06-01T10:46:13.715Z,25.60
2019-06-01T10:48:48.498Z,25.50
2019-06-01T10:51:23.332Z,25.60
2019-06-01T10:53:58.172Z,25.70
2019-06-01T10:56:34.322Z,25.80
2019-06-01T10:59:09.407Z,26.00
2019-06-01T11:01:44.361Z,25.80
2019-06-01T11:04:19.282Z,25.90
2019-06-01T11:06:54.196Z,25.70
2019-06-01T11:09:28.955Z,25.80
2019-06-01T11:12:03.898Z,25.80
2019-06-01T11:14:39.065Z,26.00
2019-06-01T11:17:14.038Z,25.90
2019-06-01T11:19:48.840Z,26.00
2019-06-01T11:22:23.633Z,25.80
2019-06-01T11:24:58.481Z,25.80
2019-06-01T11:27:33.571Z,25.90
2019-06-01T11:30:10.028Z,25.80
2019-06-01T11:32:45.187Z,25.90
2019-06-01T11:35:20.225Z,26.10
2019-06-01T11:38:21.438Z,26.10
2019-06-01T11:40:59.765Z,26.20
2019-06-01T11:43:36.686Z,26.20
2019-06-01T11:46:11.886Z,26.40
2019-06-01T11:48:46.962Z,26.60
2019-06-01T11:51:22.040Z,26.70
2019-06-01T11:53:59.423Z,26.60
2019-06-01T11:56:37.321Z,26.60
2019-06-01T11:59:13.616Z,26.50
2019-06-01T12:01:48.895Z,26.50
2019-06-01T12:07:22.057Z,26.60
2019-06-01T12:09:56.967Z,26.80
2019-06-01T12:12:33.336Z,26.60
2019-06-01T12:15:09.386Z,26.70
2019-06-01T12:17:44.937Z,26.60
2019-06-01T12:20:20.241Z,26.50
2019-06-01T12:22:55.228Z,26.60
2019-06-01T12:25:34.306Z,26.80
2019-06-01T12:28:08.419Z,26.80
2019-06-01T12:30:43.756Z,27.00
2019-06-01T12:33:18.822Z,26.90
2019-06-01T12:35:53.762Z,26.90
2019-06-01T12:38:34.776Z,26.90
2019-06-01T12:41:12.195Z,27.00
2019-06-01T12:43:49.120Z,27.20
2019-06-01T12:46:24.076Z,27.30
2019-06-01T12:48:58.956Z,27.20
2019-06-01T12:51:33.995Z,27.30
2019-06-01T12:54:09.125Z,27.30
2019-06-01T12:56:44.750Z,27.10
2019-06-01T12:59:19.867Z,27.00
2019-06-01T13:01:54.943Z,27.10
2019-06-01T13:04:29.951Z,27.30
2019-06-01T13:07:04.788Z,27.30
2019-06-01T13:09:39.608Z,27.30
2019-06-01T13:12:14.452Z,27.30
2019-06-01T13:14:55.236Z,27.40
2019-06-01T13:17:30.216Z,27.20
2019-06-01T13:20:05.610Z,27.30
2019-06-01T13:22:41.277Z,27.40
2019-06-01T13:25:16.584Z,27.40
2019-06-01T13:27:52.484Z,27.50
2019-06-01T13:30:27.685Z,27.30
2019-06-01T13:33:02.818Z,27.50
2019-06-01T13:35:37.656Z,27.60
2019-06-01T13:38:12.776Z,27.30
2019-06-01T13:40:48.966Z,27.60
2019-06-01T13:43:24.074Z,27.70
2019-06-01T13:45:58.944Z,27.50
2019-06-01T13:48:33.868Z,27.60
2019-06-01T13:51:08.628Z,27.50
2019-06-01T13:53:46.331Z,27.70
2019-06-01T13:56:21.295Z,27.80
2019-06-01T13:58:56.039Z,27.80
2019-06-01T14:01:33.825Z,27.60
2019-06-01T14:04:08.695Z,27.50
2019-06-01T14:06:44.989Z,27.60
2019-06-01T14:09:21.958Z,27.90
2019-06-01T14:11:56.499Z,27.70
2019-06-01T14:14:31.341Z,27.70
2019-06-01T14:17:06.251Z,27.80
2019-06-01T14:20:00.224Z,27.90
2019-06-01T14:22:35.088Z,27.90
2019-06-01T14:25:14.551Z,27.80
2019-06-01T14:27:48.195Z,27.90
2019-06-01T14:30:24.153Z,28.00
2019-06-01T14:33:00.144Z,28.00
2019-06-01T14:35:36.038Z,27.90
2019-06-01T14:38:11.046Z,28.00
2019-06-01T14:43:39.896Z,27.90
2019-06-01T14:46:14.896Z,28.00
2019-06-01T14:48:51.565Z,28.10
2019-06-01T14:51:26.672Z,28.10
2019-06-01T14:54:01.660Z,28.40
2019-06-01T14:56:36.526Z,28.40
2019-06-01T14:59:11.356Z,28.20
2019-06-01T15:01:46.156Z,28.10
2019-06-01T15:04:20.949Z,28.40
2019-06-01T15:06:58.659Z,28.50
2019-06-01T15:09:33.703Z,28.30
2019-06-01T15:12:08.682Z,28.30
2019-06-01T15:14:43.701Z,28.40
2019-06-01T15:17:18.905Z,28.40
2019-06-01T15:22:47.936Z,28.50
2019-06-01T15:25:22.944Z,28.50
2019-06-01T15:27:58.883Z,28.60
2019-06-01T15:30:34.062Z,28.60
2019-06-01T15:33:09.088Z,28.50
2019-06-01T15:35:46.252Z,28.70
2019-06-01T15:38:24.301Z,28.60
2019-06-01T15:41:00.554Z,28.60
2019-06-01T15:43:36.518Z,28.70
2019-06-01T15:46:11.272Z,28.60
2019-06-01T15:48:46.235Z,28.40
2019-06-01T15:51:21.254Z,28.50
2019-06-01T15:53:59.027Z,28.50
2019-06-01T15:56:34.218Z,28.50
2019-06-01T15:59:09.155Z,28.60
2019-06-01T16:01:44.222Z,28.60
2019-06-01T16:04:19.179Z,28.60
2019-06-01T16:06:54.991Z,28.60
2019-06-01T16:09:42.136Z,28.60
2019-06-01T16:12:06.896Z,28.70
2019-06-01T16:14:44.612Z,28.70
2019-06-01T16:17:19.736Z,28.70
2019-06-01T16:19:55.879Z,28.80
2019-06-01T16:22:50.125Z,28.80
2019-06-01T16:25:25.115Z,28.70
2019-06-01T16:28:00.883Z,28.60
2019-06-01T16:30:35.992Z,28.40
2019-06-01T16:33:10.964Z,28.50
2019-06-01T16:35:45.925Z,28.50
2019-06-01T16:38:20.896Z,28.60
2019-06-01T16:40:55.769Z,28.80
2019-06-01T16:43:36.345Z,28.70
2019-06-01T16:46:17.276Z,28.90
2019-06-01T16:51:59.108Z,28.70
2019-06-01T16:54:35.319Z,28.80
2019-06-01T16:57:11.316Z,29.00
2019-06-01T16:59:54.464Z,29.10
2019-06-01T17:02:32.211Z,29.10
2019-06-01T17:05:08.613Z,29.20
2019-06-01T17:07:45.260Z,29.20
2019-06-01T17:10:26.238Z,29.40
2019-06-01T17:12:59.767Z,29.20
2019-06-01T17:18:27.990Z,29.10
2019-06-01T17:21:22.067Z,29.30
2019-06-01T17:23:57.457Z,29.30
2019-06-01T17:26:32.606Z,29.60
2019-06-01T17:29:08.311Z,29.40
2019-06-01T17:31:54.309Z,29.20
2019-06-01T17:34:26.604Z,29.00
2019-06-01T17:37:02.689Z,28.90
2019-06-01T17:39:37.979Z,29.00
2019-06-01T17:42:12.941Z,29.10
2019-06-01T17:44:47.831Z,29.10
2019-06-01T17:47:27.488Z,29.20
2019-06-01T17:52:56.663Z,29.10
2019-06-01T17:55:59.472Z,29.30
2019-06-01T17:58:37.414Z,29.30
2019-06-01T18:01:15.992Z,29.50
2019-06-01T18:03:50.852Z,29.40
2019-06-01T18:06:25.707Z,29.50
2019-06-01T18:09:01.860Z,29.50
2019-06-01T18:11:38.453Z,29.40
2019-06-01T18:14:13.377Z,29.50
2019-06-01T18:16:48.292Z,29.60
2019-06-01T18:19:23.219Z,29.50
2019-06-01T18:21:58.061Z,29.60
2019-06-01T18:24:32.883Z,29.70
2019-06-01T18:27:08.513Z,29.80
2019-06-01T18:29:48.448Z,29.70
2019-06-01T18:32:20.031Z,29.80
2019-06-01T18:34:54.856Z,29.90
2019-06-01T18:37:29.798Z,30.20
2019-06-01T18:40:05.519Z,30.10
2019-06-01T18:42:40.686Z,30.10
2019-06-01T18:45:15.792Z,30.10
2019-06-01T18:47:50.692Z,30.10
2019-06-01T18:50:25.600Z,30.20
2019-06-01T18:53:00.557Z,30.20
2019-06-01T18:55:54.572Z,30.20
2019-06-01T18:58:29.468Z,30.10
2019-06-01T19:01:04.593Z,29.90
2019-06-01T19:03:39.480Z,29.90
2019-06-01T19:06:14.328Z,29.80
2019-06-01T19:08:49.276Z,29.60
2019-06-01T19:11:32.611Z,29.60
2019-06-01T19:14:00.499Z,29.50
2019-06-01T19:16:36.660Z,29.50
2019-06-01T19:19:12.568Z,29.40
2019-06-01T19:21:47.661Z,29.20
2019-06-01T19:24:22.428Z,29.10
2019-06-01T19:26:57.268Z,28.70
2019-06-01T19:29:32.052Z,28.40
2019-06-01T19:32:06.960Z,28.30
2019-06-01T19:34:41.837Z,28.30
2019-06-01T19:37:17.569Z,28.30
2019-06-01T19:39:54.027Z,28.30
2019-06-01T19:42:28.781Z,28.20
2019-06-01T19:45:03.971Z,28.10
2019-06-01T19:47:38.839Z,28.00
2019-06-01T19:50:14.274Z,28.00
2019-06-01T19:52:49.180Z,27.70
2019-06-01T19:55:24.026Z,27.70
2019-06-01T19:57:58.797Z,27.60
2019-06-01T20:00:33.631Z,27.60
2019-06-01T20:03:08.683Z,27.50
2019-06-01T20:05:43.466Z,27.50
2019-06-01T20:08:18.297Z,27.30
2019-06-01T20:10:56.428Z,27.20
2019-06-01T20:13:31.283Z,27.20
2019-06-01T20:16:06.173Z,27.20
2019-06-01T20:18:41.136Z,27.20
2019-06-01T20:21:15.955Z,27.10
2019-06-01T20:23:50.715Z,27.00
2019-06-01T20:26:39.370Z,26.90
2019-06-01T20:29:02.122Z,26.70
2019-06-01T20:31:36.906Z,26.50
2019-06-01T20:34:12.761Z,26.00
2019-06-01T20:36:48.389Z,26.00
2019-06-01T20:39:26.179Z,26.00
2019-06-01T20:42:19.963Z,26.10
2019-06-01T20:44:37.471Z,25.90
2019-06-01T20:47:36.866Z,25.90
2019-06-01T20:50:12.828Z,26.00
2019-06-01T20:53:09.213Z,26.10
2019-06-01T20:55:44.084Z,26.00
2019-06-01T20:58:21.431Z,26.00
2019-06-01T21:01:01.083Z,25.90
2019-06-01T21:03:38.218Z,25.80
2019-06-01T21:06:15.770Z,25.80
2019-06-01T21:08:53.892Z,25.80
2019-06-01T21:11:32.141Z,25.70
2019-06-01T21:14:07.044Z,25.70
2019-06-01T21:16:41.793Z,25.70
2019-06-01T21:19:16.633Z,25.60
2019-06-01T21:21:51.523Z,25.60
2019-06-01T21:24:26.297Z,25.50
2019-06-01T21:27:01.073Z,25.10
2019-06-01T21:29:35.947Z,25.30
2019-06-01T21:32:10.776Z,25.30
2019-06-01T21:34:45.626Z,25.30
2019-06-01T21:37:21.610Z,25.40
2019-06-01T21:39:56.588Z,25.30
2019-06-01T21:42:31.446Z,25.30
2019-06-01T21:45:06.644Z,25.30
2019-06-01T21:47:41.509Z,25.10
2019-06-01T21:50:18.012Z,24.80
2019-06-01T21:52:52.979Z,24.90
2019-06-01T21:55:27.734Z,24.80
2019-06-01T21:58:02.503Z,24.60
2019-06-01T22:00:38.651Z,23.80
2019-06-01T22:03:14.820Z,23.90
2019-06-01T22:05:49.643Z,24.10
2019-06-01T22:08:25.327Z,24.20
2019-06-01T22:11:00.445Z,24.30
2019-06-01T22:13:35.315Z,24.40
2019-06-01T22:16:11.035Z,24.30
2019-06-01T22:18:45.826Z,24.40
2019-06-01T22:21:21.647Z,24.30
2019-06-01T22:23:56.639Z,24.20
2019-06-01T22:26:31.489Z,24.20
2019-06-01T22:29:06.455Z,24.20
2019-06-01T22:31:41.388Z,24.20
2019-06-01T22:34:16.235Z,24.20
2019-06-01T22:36:50.989Z,24.20
2019-06-01T22:39:27.009Z,23.80
2019-06-01T22:42:03.436Z,23.90
2019-06-01T22:44:38.208Z,23.80
2019-06-01T22:47:12.969Z,23.90
2019-06-01T22:49:48.812Z,24.00
2019-06-01T22:52:25.030Z,24.00
2019-06-01T22:55:00.064Z,24.00
2019-06-01T22:57:34.892Z,24.00
2019-06-01T23:00:11.284Z,23.90
2019-06-01T23:02:46.100Z,24.00
2019-06-01T23:05:21.075Z,23.90
2019-06-01T23:07:55.944Z,23.80
2019-06-01T23:10:35.159Z,23.80
2019-06-01T23:13:07.256Z,23.80
2019-06-01T23:15:42.086Z,23.60
2019-06-01T23:18:16.913Z,23.40
2019-06-01T23:20:51.820Z,23.30
2019-06-01T23:23:26.612Z,23.10
2019-06-01T23:26:01.377Z,23.10
2019-06-01T23:28:38.643Z,22.80
2019-06-01T23:31:12.725Z,22.90
2019-06-01T23:34:06.821Z,22.70
2019-06-01T23:36:41.728Z,22.90
2019-06-01T23:39:18.028Z,22.90
2019-06-01T23:41:52.776Z,22.80
2019-06-01T23:44:30.702Z,22.50
2019-06-01T23:47:04.192Z,22.40
2019-06-01T23:49:39.136Z,22.50
2019-06-01T23:52:13.896Z,22.50
2019-06-01T23:54:48.744Z,22.40
2019-06-01T23:57:23.755Z,22.50
2019-06-01T23:59:58.675Z,22.60
